Time;durP1;ratioP1;P1;durP2;ratioP2;P2;SDS_P1;SDS_P2;PMS_P1;PMS_P2;Temp;Humidity;BMP_temperature;BMP_pressure;BME280_temperature;BME280_humidity;BME280_pressure;Samples;Min_cycle;Max_cycle;Signal;HPM_P1;HPM_P2
2023/07/09 00:01:52;;;;;;;5.85;4.07;;;;;;;21.84;86.07;98829.91;4072560;29;20270;-61
2023/07/09 00:03:54;;;;;;;6.32;3.78;;;;;;;21.86;85.90;98827.63;4070682;29;20208;-61
2023/07/09 00:05:55;;;;;;;6.13;4.50;;;;;;;21.85;85.51;98824.00;4072466;29;20736;-61
2023/07/09 00:07:57;;;;;;;4.30;3.88;;;;;;;21.80;85.37;98832.50;4072390;29;20250;-61
2023/07/09 00:09:59;;;;;;;4.70;4.30;;;;;;;21.79;85.79;98827.25;4072270;29;20242;-61
2023/07/09 00:12:01;;;;;;;4.38;4.07;;;;;;;21.78;85.77;98823.63;4073370;29;20612;-61
2023/07/09 00:14:05;;;;;;;4.97;4.45;;;;;;;21.73;86.24;98834.06;4070316;29;20397;-61
2023/07/09 00:16:12;;;;;;;4.45;4.05;;;;;;;21.66;86.01;98833.66;4072426;29;20770;-61
2023/07/09 00:18:14;;;;;;;4.47;4.07;;;;;;;21.74;86.03;98832.94;4071696;29;20585;-61
2023/07/09 00:20:18;;;;;;;6.97;4.60;;;;;;;21.73;85.67;98837.69;4071100;29;20208;-61
2023/07/09 00:22:20;;;;;;;4.65;4.25;;;;;;;21.68;85.63;98839.75;4069333;29;20315;-61
2023/07/09 00:24:22;;;;;;;4.22;3.72;;;;;;;21.66;85.14;98839.22;4069778;29;20694;-61
2023/07/09 00:26:24;;;;;;;4.63;4.07;;;;;;;21.68;85.38;98845.31;4072007;29;20331;-61
2023/07/09 00:28:25;;;;;;;3.80;3.50;;;;;;;21.67;85.31;98841.72;4069584;29;20776;-61
2023/07/09 00:30:27;;;;;;;6.05;4.07;;;;;;;21.65;85.26;98837.56;4071092;29;20672;-61
2023/07/09 00:32:28;;;;;;;4.97;4.45;;;;;;;21.67;85.27;98846.47;4069537;29;20216;-61
2023/07/09 00:34:30;;;;;;;5.90;4.43;;;;;;;21.61;85.70;98837.38;4070468;29;20215;-61
2023/07/09 00:36:32;;;;;;;9.18;4.15;;;;;;;21.59;85.78;98844.41;4070764;29;20216;-61
2023/07/09 00:38:38;;;;;;;4.70;3.70;;;;;;;21.54;86.27;98844.50;4069735;29;20243;-61
2023/07/09 00:41:05;;;;;;;4.95;4.20;;;;;;;21.48;86.14;98848.53;4072732;29;21088;-61
2023/07/09 00:43:14;;;;;;;4.40;3.88;;;;;;;21.49;86.48;98844.63;4086938;28;20237;-61
2023/07/09 00:45:24;;;;;;;5.63;4.60;;;;;;;21.40;86.90;98840.94;4085324;28;20231;-61
2023/07/09 00:47:44;;;;;;;6.35;4.38;;;;;;;21.42;87.69;98838.66;4070740;29;20211;-61
2023/07/09 00:49:46;;;;;;;6.90;3.53;;;;;;;21.25;88.50;98849.63;4069303;29;20216;-61
2023/07/09 00:51:48;;;;;;;5.53;4.30;;;;;;;21.16;88.49;98846.72;4074942;29;20273;-61
2023/07/09 00:53:52;;;;;;;4.97;4.32;;;;;;;21.11;88.39;98844.06;4072580;29;20281;-61
2023/07/09 00:56:06;;;;;;;5.10;4.55;;;;;;;21.03;88.41;98846.72;4071588;29;20204;-61
2023/07/09 00:58:10;;;;;;;5.60;4.68;;;;;;;21.03;88.52;98846.72;4070452;29;20204;-61
2023/07/09 01:00:14;;;;;;;4.40;4.00;;;;;;;20.97;88.66;98853.56;4069780;29;20252;-61
2023/07/09 01:02:17;;;;;;;5.65;5.07;;;;;;;20.96;89.02;98857.44;4071415;29;20985;-61
2023/07/09 01:04:21;;;;;;;4.57;4.18;;;;;;;20.93;89.03;98852.50;4069829;29;20212;-61
2023/07/09 01:06:36;;;;;;;4.38;3.97;;;;;;;20.92;88.67;98851.69;4068863;29;20228;-61
2023/07/09 01:08:41;;;;;;;5.07;3.95;;;;;;;20.93;89.22;98850.56;4069444;29;20203;-61
2023/07/09 01:10:43;;;;;;;6.22;4.30;;;;;;;20.91;89.20;98852.00;4068423;29;20211;-61
2023/07/09 01:12:46;;;;;;;4.72;4.18;;;;;;;20.88;89.23;98847.03;4069861;29;20760;-61
2023/07/09 01:14:51;;;;;;;4.93;4.30;;;;;;;20.84;89.44;98849.59;4071198;29;20211;-61
2023/07/09 01:16:57;;;;;;;7.47;4.07;;;;;;;20.85;88.99;98853.19;4073602;29;20636;-61
2023/07/09 01:19:00;;;;;;;5.32;4.85;;;;;;;20.82;89.01;98851.03;4077661;29;20212;-61
2023/07/09 01:21:07;;;;;;;4.68;4.25;;;;;;;20.80;89.71;98850.50;4070517;29;20232;-61
2023/07/09 01:23:09;;;;;;;4.70;3.55;;;;;;;20.77;89.67;98849.16;4071432;29;20212;-61
2023/07/09 01:25:11;;;;;;;5.00;4.53;;;;;;;20.80;90.47;98853.28;4071165;29;20259;-61
2023/07/09 01:27:13;;;;;;;6.78;4.28;;;;;;;20.74;90.90;98854.53;4069907;29;20361;-61
2023/07/09 01:29:15;;;;;;;6.05;5.55;;;;;;;20.68;91.00;98851.03;4069719;29;20207;-61
2023/07/09 01:31:17;;;;;;;4.80;4.28;;;;;;;20.65;91.53;98850.81;4068770;29;21256;-61
2023/07/09 01:33:18;;;;;;;7.90;4.82;;;;;;;20.64;91.46;98854.72;4073450;29;20294;-61
2023/07/09 01:35:21;;;;;;;5.30;4.65;;;;;;;20.57;91.32;98851.53;4072403;29;20657;-61
2023/07/09 01:37:26;;;;;;;5.35;4.60;;;;;;;20.57;91.18;98848.75;4071888;29;20859;-61
2023/07/09 01:39:28;;;;;;;4.40;4.00;;;;;;;20.63;91.21;98853.06;4071388;29;20274;-61
2023/07/09 01:41:33;;;;;;;4.53;4.13;;;;;;;20.60;90.87;98850.91;4072501;29;20290;-61
2023/07/09 01:43:36;;;;;;;4.65;4.13;;;;;;;20.64;91.14;98843.59;4069451;29;20204;-61
2023/07/09 01:45:38;;;;;;;5.03;4.43;;;;;;;20.62;90.62;98852.25;4072208;29;20244;-61
2023/07/09 01:47:39;;;;;;;4.75;4.35;;;;;;;20.63;90.51;98853.06;4070183;29;20624;-61
2023/07/09 01:49:41;;;;;;;4.88;4.18;;;;;;;20.63;90.57;98841.94;4069934;29;20215;-61
2023/07/09 01:51:43;;;;;;;4.60;3.92;;;;;;;20.59;90.78;98852.03;4070878;29;20665;-61
2023/07/09 01:53:44;;;;;;;5.32;4.60;;;;;;;20.53;90.99;98842.97;4071806;29;20302;-61
2023/07/09 01:55:46;;;;;;;8.05;4.35;;;;;;;20.53;90.98;98847.69;4071520;29;20210;-61
2023/07/09 01:57:50;;;;;;;4.38;3.90;;;;;;;20.51;91.06;98850.78;4070398;29;20707;-61
2023/07/09 01:59:54;;;;;;;4.93;4.25;;;;;;;20.49;91.47;98843.88;4069830;29;20672;-61
2023/07/09 02:01:57;;;;;;;5.63;5.07;;;;;;;20.51;91.74;98844.41;4077000;29;20231;-61
2023/07/09 02:04:27;;;;;;;5.97;4.00;;;;;;;20.48;91.43;98853.34;4068939;29;20295;-61
2023/07/09 02:06:31;;;;;;;4.65;4.20;;;;;;;20.52;91.52;98840.50;4074736;29;20232;-61
2023/07/09 02:08:33;;;;;;;4.22;3.85;;;;;;;20.53;91.59;98847.69;4070131;29;20211;-61
2023/07/09 02:10:35;;;;;;;5.07;4.68;;;;;;;20.50;91.59;98848.31;4071794;29;20298;-61
2023/07/09 02:12:36;;;;;;;5.53;4.40;;;;;;;20.43;92.02;98848.72;4068710;29;20778;-61
2023/07/09 02:14:39;;;;;;;5.78;5.32;;;;;;;20.38;91.89;98850.75;4066681;29;20226;-61
2023/07/09 02:16:40;;;;;;;5.68;4.50;;;;;;;20.33;92.28;98848.91;4069245;29;20204;-61
2023/07/09 02:18:42;;;;;;;5.22;4.72;;;;;;;20.33;92.51;98848.91;4068577;29;20220;-61
2023/07/09 02:20:46;;;;;;;5.05;3.85;;;;;;;20.33;92.07;98848.06;4068995;29;20235;-61
2023/07/09 02:22:50;;;;;;;4.22;3.83;;;;;;;20.27;92.03;98847.34;4069974;29;20272;-61
2023/07/09 02:24:52;;;;;;;5.93;5.35;;;;;;;20.23;92.50;98848.22;4069076;29;20703;-61
2023/07/09 02:26:55;;;;;;;5.82;4.78;;;;;;;20.20;92.08;98843.28;4072706;29;20259;-61
2023/07/09 02:28:56;;;;;;;6.88;4.85;;;;;;;20.20;92.34;98843.28;4073595;29;20307;-61
2023/07/09 02:30:58;;;;;;;5.13;4.68;;;;;;;20.11;92.36;98847.91;4069414;29;20259;-62
2023/07/09 02:33:00;;;;;;;5.13;4.63;;;;;;;20.06;92.62;98843.22;4074135;29;20243;-61
2023/07/09 02:35:01;;;;;;;4.80;4.40;;;;;;;20.04;92.27;98850.22;4070992;29;20629;-61
2023/07/09 02:37:03;;;;;;;8.70;4.82;;;;;;;20.04;92.25;98853.00;4071902;29;20204;-61
2023/07/09 02:39:04;;;;;;;6.53;5.03;;;;;;;20.02;92.25;98852.44;4069405;29;20261;-61
2023/07/09 02:41:06;;;;;;;5.53;4.43;;;;;;;19.98;92.53;98852.22;4059332;29;20251;-61
2023/07/09 02:43:08;;;;;;;5.68;4.35;;;;;;;20.01;92.51;98861.91;4072144;29;20208;-61
2023/07/09 02:45:10;;;;;;;5.22;4.82;;;;;;;19.98;92.49;98852.22;4070917;29;20215;-61
2023/07/09 02:47:12;;;;;;;5.38;4.85;;;;;;;19.96;92.66;98856.44;4076591;29;20950;-61
2023/07/09 02:49:14;;;;;;;6.18;4.38;;;;;;;19.94;92.33;98858.69;4073868;29;20662;-61
2023/07/09 02:51:16;;;;;;;5.60;4.95;;;;;;;19.90;92.50;98860.44;4073345;29;20231;-61
2023/07/09 02:53:17;;;;;;;5.47;5.00;;;;;;;19.86;92.35;98864.94;4074145;29;20211;-61
2023/07/09 02:55:19;;;;;;;4.72;4.32;;;;;;;19.84;92.40;98870.78;4071409;29;20231;-61
2023/07/09 02:57:21;;;;;;;5.65;5.13;;;;;;;19.83;92.65;98865.53;4071451;29;20640;-61
2023/07/09 02:59:22;;;;;;;5.47;4.32;;;;;;;19.80;93.00;98872.53;4070067;29;20298;-61
2023/07/09 03:01:27;;;;;;;4.40;4.10;;;;;;;19.80;92.82;98868.91;4072151;29;20286;-61
2023/07/09 03:03:28;;;;;;;5.90;5.32;;;;;;;19.74;92.92;98867.34;4072503;29;20217;-61
2023/07/09 03:05:30;;;;;;;6.43;5.10;;;;;;;19.66;93.57;98876.34;4073152;29;20245;-61
2023/07/09 03:07:32;;;;;;;5.80;5.15;;;;;;;19.62;94.03;98864.19;4070969;29;20227;-61
2023/07/09 03:09:33;;;;;;;4.82;4.38;;;;;;;19.63;94.31;98871.38;4075463;29;20294;-61
2023/07/09 03:11:35;;;;;;;5.78;5.15;;;;;;;19.58;94.46;98872.28;4073284;29;20239;-61
2023/07/09 03:13:37;;;;;;;5.32;4.75;;;;;;;19.56;94.68;98871.78;4073983;29;20212;-61
2023/07/09 03:15:39;;;;;;;4.75;4.43;;;;;;;19.55;94.73;98874.84;4071946;29;20208;-61
2023/07/09 03:17:40;;;;;;;6.82;5.57;;;;;;;19.51;94.87;98873.81;4076232;29;20247;-61
2023/07/09 03:19:42;;;;;;;5.70;5.20;;;;;;;19.46;95.10;98887.75;4070193;29;20270;-61
2023/07/09 03:21:44;;;;;;;6.40;4.95;;;;;;;19.41;95.29;98888.66;4071658;29;20231;-61
2023/07/09 03:23:45;;;;;;;5.80;5.30;;;;;;;19.43;95.66;98891.09;4071202;29;20307;-62
2023/07/09 03:25:47;;;;;;;4.95;4.47;;;;;;;19.43;95.95;98889.16;4073630;29;20225;-61
2023/07/09 03:27:49;;;;;;;5.32;4.82;;;;;;;19.41;95.81;98890.59;4072132;29;20243;-61
2023/07/09 03:29:50;;;;;;;5.80;5.30;;;;;;;19.40;95.54;98888.94;4071640;29;20272;-62
2023/07/09 03:31:52;;;;;;;4.68;4.28;;;;;;;19.38;95.61;98885.66;4070093;29;20328;-61
2023/07/09 03:33:54;;;;;;;6.03;5.47;;;;;;;19.38;95.61;98891.19;4072126;29;21227;-61
2023/07/09 03:35:55;;;;;;;5.88;4.97;;;;;;;19.37;95.42;98892.31;4071369;29;20216;-61
2023/07/09 03:37:57;;;;;;;6.03;5.07;;;;;;;19.33;95.65;98903.19;4072856;29;20208;-62
2023/07/09 03:39:58;;;;;;;5.40;4.88;;;;;;;19.29;96.14;98904.06;4070763;29;20215;-61
2023/07/09 03:42:00;;;;;;;5.57;5.18;;;;;;;19.28;96.24;98903.25;4072963;29;20319;-61
2023/07/09 03:44:02;;;;;;;4.63;4.22;;;;;;;19.30;96.49;98911.25;4072610;29;20343;-62
2023/07/09 03:46:04;;;;;;;5.70;5.18;;;;;;;19.26;96.44;98915.78;4073404;29;20314;-61
2023/07/09 03:48:06;;;;;;;6.05;5.47;;;;;;;19.22;96.75;98911.91;4070670;29;20207;-61
2023/07/09 03:50:09;;;;;;;5.05;4.65;;;;;;;19.20;96.72;98916.94;4072245;29;20263;-61
2023/07/09 03:52:11;;;;;;;4.68;4.10;;;;;;;19.22;96.84;98914.69;4073068;29;20228;-61
2023/07/09 03:54:12;;;;;;;5.68;5.18;;;;;;;19.27;96.87;98917.41;4071595;29;20209;-61
2023/07/09 03:56:14;;;;;;;5.30;4.88;;;;;;;19.25;96.88;98922.44;4074067;29;20205;-61
2023/07/09 03:58:15;;;;;;;4.90;4.22;;;;;;;19.21;97.00;98930.53;4073578;29;20236;-61
2023/07/09 04:00:17;;;;;;;5.85;5.35;;;;;;;19.18;97.28;98924.72;4074536;29;20270;-61
2023/07/09 04:02:19;;;;;;;5.90;5.43;;;;;;;19.21;97.37;98918.59;4070882;29;20673;-61
2023/07/09 04:04:20;;;;;;;5.28;4.80;;;;;;;19.27;97.87;98926.59;4069707;29;20208;-61
2023/07/09 04:06:22;;;;;;;5.55;4.78;;;;;;;19.33;97.80;98924.56;4071322;29;20223;-61
2023/07/09 04:08:25;;;;;;;5.07;4.57;;;;;;;19.34;97.69;98931.75;4071720;29;20247;-61
2023/07/09 04:10:27;;;;;;;5.53;5.03;;;;;;;19.37;97.33;98923.66;4065325;29;20208;-61
2023/07/09 04:12:28;;;;;;;5.82;4.97;;;;;;;19.35;97.03;98925.09;4068335;29;20204;-61
2023/07/09 04:14:30;;;;;;;5.20;4.68;;;;;;;19.32;97.10;98926.50;4068865;29;20645;-61
2023/07/09 04:16:31;;;;;;;5.43;5.00;;;;;;;19.33;96.95;98924.56;4066110;29;20212;-61
2023/07/09 04:18:33;;;;;;;5.93;5.22;;;;;;;19.33;97.34;98932.88;4070568;29;20680;-61
2023/07/09 04:20:35;;;;;;;5.88;5.40;;;;;;;19.27;97.54;98922.97;4070382;29;20248;-61
2023/07/09 04:22:37;;;;;;;5.60;5.20;;;;;;;19.30;97.43;98927.91;4070511;29;20254;-61
2023/07/09 04:24:39;;;;;;;5.55;5.03;;;;;;;19.31;97.71;98935.16;4068529;29;20208;-61
2023/07/09 04:26:40;;;;;;;5.93;5.43;;;;;;;19.35;97.57;98930.63;4067964;29;20235;-62
2023/07/09 04:28:42;;;;;;;6.03;5.50;;;;;;;19.41;97.54;98926.69;4068690;29;20248;-62
2023/07/09 04:30:50;;;;;;;4.85;4.30;;;;;;;19.39;97.01;98926.97;4069338;29;20976;-61
2023/07/09 04:32:52;;;;;;;5.93;5.28;;;;;;;19.40;96.57;98922.25;4069715;29;20280;-61
2023/07/09 04:34:54;;;;;;;6.45;4.55;;;;;;;19.39;96.62;98926.16;4066430;29;20207;-61
2023/07/09 04:36:55;;;;;;;5.60;5.18;;;;;;;19.39;96.83;98923.38;4067035;29;20320;-61
2023/07/09 04:38:57;;;;;;;4.35;4.03;;;;;;;19.41;96.70;98929.44;4063310;29;20254;-62
2023/07/09 04:40:59;;;;;;;4.95;4.53;;;;;;;19.40;96.91;98933.34;4068631;29;20255;-61
2023/07/09 04:43:00;;;;;;;4.72;4.40;;;;;;;19.40;97.27;98931.41;4066440;29;20219;-61
2023/07/09 04:45:02;;;;;;;5.35;4.78;;;;;;;19.39;97.26;98928.94;4071112;29;20237;-62
2023/07/09 04:47:04;;;;;;;5.72;5.22;;;;;;;19.43;97.66;98932.75;4080542;28;20714;-61
2023/07/09 04:49:06;;;;;;;5.43;4.93;;;;;;;19.39;97.77;98921.41;4067895;29;20253;-62
2023/07/09 04:51:08;;;;;;;5.22;4.75;;;;;;;19.43;97.82;98928.03;4069084;29;20598;-61
2023/07/09 04:53:11;;;;;;;5.40;4.90;;;;;;;19.44;98.20;98928.88;4066452;29;20215;-61
2023/07/09 04:55:13;;;;;;;5.80;5.20;;;;;;;19.45;98.15;98930.53;4069674;29;20204;-61
2023/07/09 04:57:14;;;;;;;5.75;5.25;;;;;;;19.47;97.75;98939.38;4066128;29;20291;-61
2023/07/09 04:59:16;;;;;;;9.55;5.15;;;;;;;19.46;97.61;98938.53;4066540;29;20299;-61
2023/07/09 05:01:17;;;;;;;5.40;4.95;;;;;;;19.48;97.54;98936.31;4067313;29;20228;-61
2023/07/09 05:03:19;;;;;;;5.97;5.47;;;;;;;19.37;99.97;98934.78;4066478;29;20279;-61
2023/07/09 05:05:21;;;;;;;7.95;7.28;;;;;;;19.27;100.00;98934.06;4080180;28;20266;-62
2023/07/09 05:07:22;;;;;;;6.68;6.07;;;;;;;19.28;100.00;98941.28;4068124;29;20263;-61
2023/07/09 05:09:24;;;;;;;6.45;5.78;;;;;;;19.31;100.00;98935.16;4068540;29;20212;-61
2023/07/09 05:11:26;;;;;;;6.07;5.47;;;;;;;19.12;100.00;98932.25;4068069;29;20232;-62
2023/07/09 05:13:28;;;;;;;7.35;6.63;;;;;;;19.19;100.00;98937.47;4065346;29;20770;-61
2023/07/09 05:15:29;;;;;;;6.45;5.95;;;;;;;19.12;100.00;98937.00;4063413;29;20215;-61
2023/07/09 05:17:31;;;;;;;5.90;5.13;;;;;;;19.28;100.00;98935.72;4064735;29;20244;-61
2023/07/09 05:19:33;;;;;;;7.28;5.50;;;;;;;19.30;100.00;98939.00;4066711;29;20212;-61
2023/07/09 05:21:35;;;;;;;5.43;4.97;;;;;;;19.39;100.00;98937.25;4068607;29;20267;-61
2023/07/09 05:23:36;;;;;;;5.63;5.18;;;;;;;19.55;99.94;98927.59;4068824;29;20208;-61
2023/07/09 05:25:38;;;;;;;6.25;5.45;;;;;;;19.66;98.70;98931.91;4070786;29;20303;-61
2023/07/09 05:27:40;;;;;;;5.90;5.32;;;;;;;19.78;97.93;98929.50;4069170;29;20323;-62
2023/07/09 05:29:41;;;;;;;6.57;5.15;;;;;;;19.92;96.83;98927.63;4075885;29;20711;-62
2023/07/09 05:31:43;;;;;;;5.75;5.05;;;;;;;20.05;96.34;98930.50;4068333;29;20228;-62
2023/07/09 05:33:45;;;;;;;6.55;5.28;;;;;;;20.18;96.02;98932.53;4068013;29;20204;-62
2023/07/09 05:35:47;;;;;;;7.32;4.85;;;;;;;20.28;95.32;98928.75;4071041;29;20208;-62
2023/07/09 05:37:48;;;;;;;5.25;4.85;;;;;;;20.40;95.49;98931.91;4067409;29;20223;-61
2023/07/09 05:39:50;;;;;;;6.60;5.82;;;;;;;20.55;96.13;98934.41;4054301;29;20235;-62
2023/07/09 05:41:51;;;;;;;5.20;4.65;;;;;;;20.69;96.39;98935.28;4067569;29;20270;-61
2023/07/09 05:43:53;;;;;;;4.93;4.43;;;;;;;20.81;95.20;98935.63;4068579;29;20944;-62
2023/07/09 05:45:55;;;;;;;6.13;5.35;;;;;;;20.80;95.35;98936.75;4069318;29;20310;-62
2023/07/09 05:47:57;;;;;;;10.70;5.25;;;;;;;21.05;95.13;98934.34;4065609;29;20318;-62
2023/07/09 05:49:59;;;;;;;8.50;4.38;;;;;;;21.22;93.26;98944.88;4067350;29;20207;-62
2023/07/09 05:52:01;;;;;;;5.68;4.97;;;;;;;21.36;91.93;98945.72;4066791;29;20232;-62
2023/07/09 05:54:03;;;;;;;7.50;5.15;;;;;;;21.46;91.59;98939.94;4068690;29;21971;-62
2023/07/09 05:56:04;;;;;;;4.68;4.15;;;;;;;21.56;90.68;98934.16;4065730;29;21975;-61
2023/07/09 05:58:06;;;;;;;5.28;4.78;;;;;;;21.77;89.99;98947.38;4070192;29;20209;-62
2023/07/09 06:00:09;;;;;;;4.40;4.00;;;;;;;22.04;87.39;98940.94;4067990;29;20937;-62
2023/07/09 06:02:15;;;;;;;4.20;3.80;;;;;;;22.29;86.56;98937.53;4070100;29;20235;-62
2023/07/09 06:04:17;;;;;;;7.70;5.97;;;;;;;22.43;85.61;98932.78;4068986;29;20204;-62
2023/07/09 06:06:20;;;;;;;4.85;4.45;;;;;;;22.31;86.59;98940.84;4070973;29;20569;-62
2023/07/09 06:08:21;;;;;;;5.28;4.32;;;;;;;22.50;85.06;98936.75;4067253;29;20430;-62
2023/07/09 06:10:23;;;;;;;4.90;3.97;;;;;;;22.68;84.52;98937.69;4071734;29;20235;-62
2023/07/09 06:12:25;;;;;;;6.57;4.43;;;;;;;22.73;84.91;98938.41;4071597;29;20740;-62
2023/07/09 06:14:27;;;;;;;5.45;4.85;;;;;;;22.87;84.06;98941.94;4057830;29;20335;-62
2023/07/09 06:16:29;;;;;;;5.82;5.13;;;;;;;22.76;83.19;98931.38;4074206;29;20215;-61
2023/07/09 06:18:30;;;;;;;5.32;4.82;;;;;;;23.15;82.68;98939.78;4073830;29;20208;-64
2023/07/09 06:20:32;;;;;;;4.70;4.28;;;;;;;23.31;81.79;98932.66;4072108;29;20219;-61
2023/07/09 06:22:34;;;;;;;5.70;4.75;;;;;;;23.32;81.09;98951.06;4063161;29;20566;-62
2023/07/09 06:24:36;;;;;;;6.72;5.03;;;;;;;23.37;81.13;98936.97;4069954;29;20253;-61
2023/07/09 06:26:39;;;;;;;4.97;4.40;;;;;;;23.56;80.38;98943.13;4072248;29;20215;-62
2023/07/09 06:28:41;;;;;;;6.28;5.65;;;;;;;23.65;80.51;98932.78;4074072;29;20235;-61
2023/07/09 06:30:45;;;;;;;4.90;4.50;;;;;;;23.73;80.17;98941.19;4063150;29;21031;-61
2023/07/09 06:32:47;;;;;;;5.55;5.03;;;;;;;23.92;79.14;98945.34;4075981;29;20266;-61
2023/07/09 06:34:50;;;;;;;4.70;4.30;;;;;;;24.18;78.00;98937.00;4068952;29;20231;-61
2023/07/09 06:36:52;;;;;;;6.40;5.07;;;;;;;24.34;76.14;98941.78;4076340;29;20238;-62
2023/07/09 06:38:54;;;;;;;5.78;4.45;;;;;;;24.05;77.38;98937.97;4070490;29;20214;-62
2023/07/09 06:40:56;;;;;;;10.90;5.65;;;;;;;24.03;77.63;98932.72;4063568;29;20227;-61
2023/07/09 06:42:58;;;;;;;6.30;5.75;;;;;;;24.15;78.68;98930.09;4070186;29;20211;-61
2023/07/09 06:44:59;;;;;;;5.82;4.63;;;;;;;24.33;78.38;98926.13;4068219;29;20215;-61
2023/07/09 06:47:01;;;;;;;5.28;4.75;;;;;;;24.48;78.44;98931.25;4070663;29;20231;-61
2023/07/09 06:49:05;;;;;;;6.00;5.07;;;;;;;24.83;78.43;98932.88;4071288;29;20205;-62
2023/07/09 06:51:06;;;;;;;5.22;4.63;;;;;;;24.89;76.89;98930.72;4073212;29;20224;-62
2023/07/09 06:53:09;;;;;;;8.70;5.03;;;;;;;25.12;76.39;98930.16;4070137;29;20215;-62
2023/07/09 06:55:11;;;;;;;5.05;4.55;;;;;;;25.42;75.28;98929.09;4070982;29;20370;-62
2023/07/09 06:57:12;;;;;;;4.75;4.18;;;;;;;25.63;73.89;98932.78;4071324;29;20204;-62
2023/07/09 06:59:14;;;;;;;4.90;4.40;;;;;;;25.83;73.66;98922.75;4073017;29;20240;-61
2023/07/09 07:01:16;;;;;;;5.57;4.38;;;;;;;26.01;72.55;98925.16;4070466;29;20228;-61
2023/07/09 07:03:23;;;;;;;4.05;3.70;;;;;;;26.18;72.46;98925.03;4074713;29;20210;-62
2023/07/09 07:05:26;;;;;;;5.20;3.80;;;;;;;26.36;71.57;98918.09;4069645;29;20215;-62
2023/07/09 07:07:28;;;;;;;5.30;4.63;;;;;;;26.57;71.05;98921.75;4071602;29;20308;-62
2023/07/09 07:09:30;;;;;;;8.73;4.50;;;;;;;26.83;70.58;98921.47;4072086;29;20200;-62
2023/07/09 07:11:31;;;;;;;5.03;4.40;;;;;;;27.11;71.10;98931.75;4070426;29;20744;-62
2023/07/09 07:13:38;;;;;;;5.32;4.15;;;;;;;27.14;71.51;98919.84;4071571;29;20208;-62
2023/07/09 07:15:40;;;;;;;4.63;4.22;;;;;;;27.18;66.64;98915.16;4075910;29;20211;-62
2023/07/09 07:17:42;;;;;;;4.82;4.07;;;;;;;27.13;67.43;98922.97;4072964;29;20232;-62
2023/07/09 07:19:43;;;;;;;4.18;3.40;;;;;;;27.50;67.14;98917.09;4071608;29;20213;-62
2023/07/09 07:21:45;;;;;;;7.90;5.10;;;;;;;27.54;66.14;98918.03;4069757;29;20239;-63
2023/07/09 07:23:47;;;;;;;5.95;5.22;;;;;;;27.70;65.39;98921.78;4072139;29;20294;-62
2023/07/09 07:25:49;;;;;;;4.47;4.03;;;;;;;27.92;66.27;98917.69;4073300;29;20245;-62
2023/07/09 07:27:50;;;;;;;6.30;5.32;;;;;;;28.01;65.37;98916.41;4068575;29;20302;-62
2023/07/09 07:29:53;;;;;;;4.45;4.05;;;;;;;28.10;64.33;98925.53;4071372;29;20207;-62
2023/07/09 07:31:55;;;;;;;4.90;4.50;;;;;;;28.42;64.26;98927.34;4072989;29;20324;-62
2023/07/09 07:33:56;;;;;;;6.43;4.00;;;;;;;28.62;65.00;98912.25;4069662;29;20591;-62
2023/07/09 07:35:58;;;;;;;8.95;3.92;;;;;;;28.78;63.41;98920.78;4071545;29;20215;-62
2023/07/09 07:38:20;;;;;;;5.07;4.68;;;;;;;29.02;62.27;98918.66;4071587;29;20215;-62
2023/07/09 07:40:21;;;;;;;5.05;3.97;;;;;;;28.56;59.58;98922.16;4073134;29;20705;-62
2023/07/09 07:42:23;;;;;;;9.80;4.63;;;;;;;28.79;59.66;98922.41;4071164;29;21250;-63
2023/07/09 07:44:24;;;;;;;6.05;3.95;;;;;;;29.13;59.82;98919.75;4071533;29;20208;-62
2023/07/09 07:46:26;;;;;;;4.20;3.80;;;;;;;29.22;59.08;98920.44;4072479;29;20207;-62
2023/07/09 07:48:28;;;;;;;7.50;3.72;;;;;;;29.09;57.04;98918.88;4072302;29;20231;-62
2023/07/09 07:50:30;;;;;;;4.68;4.07;;;;;;;29.17;57.24;98915.03;4073790;29;20257;-62
2023/07/09 07:52:32;;;;;;;5.30;4.07;;;;;;;29.09;56.52;98923.66;4070270;29;20214;-62
2023/07/09 07:54:34;;;;;;;4.38;3.92;;;;;;;29.01;56.58;98922.69;4067737;29;20209;-62
2023/07/09 07:56:36;;;;;;;6.22;4.65;;;;;;;29.52;56.16;98932.13;4073439;29;20200;-62
2023/07/09 07:58:41;;;;;;;4.70;4.07;;;;;;;29.57;55.85;98926.22;4074004;29;20224;-62
2023/07/09 08:00:43;;;;;;;4.50;4.07;;;;;;;29.66;54.23;98922.00;4070403;29;21088;-62
2023/07/09 08:02:44;;;;;;;4.38;4.00;;;;;;;29.85;54.16;98924.09;4067944;29;20255;-62
2023/07/09 08:04:46;;;;;;;4.82;4.18;;;;;;;30.15;54.11;98917.59;4069892;29;20298;-62
2023/07/09 08:06:48;;;;;;;4.10;3.58;;;;;;;30.52;53.94;98921.63;4069728;29;20204;-62
2023/07/09 08:08:50;;;;;;;4.18;3.78;;;;;;;30.83;53.65;98918.69;4070743;29;20219;-62
2023/07/09 08:10:51;;;;;;;10.90;3.75;;;;;;;30.72;52.71;98920.47;4068700;29;21196;-62
2023/07/09 08:12:56;;;;;;;4.35;3.60;;;;;;;30.35;51.23;98913.59;4070106;29;21225;-62
2023/07/09 08:14:58;;;;;;;5.82;4.72;;;;;;;30.43;51.05;98917.38;4070387;29;20211;-62
2023/07/09 08:16:59;;;;;;;5.63;4.18;;;;;;;30.48;51.31;98914.28;4069786;29;20207;-61
2023/07/09 08:19:01;;;;;;;4.15;3.75;;;;;;;30.51;51.55;98920.00;4072771;29;20659;-61
2023/07/09 08:21:03;;;;;;;4.05;3.30;;;;;;;30.87;51.57;98918.78;4069917;29;20355;-62
2023/07/09 08:23:05;;;;;;;5.30;3.30;;;;;;;31.30;51.06;98912.78;4072315;29;20208;-62
2023/07/09 08:25:07;;;;;;;4.80;3.47;;;;;;;31.71;51.34;98909.88;4071160;29;20309;-62
2023/07/09 08:27:09;;;;;;;4.30;3.40;;;;;;;31.97;49.58;98909.91;4068864;29;20200;-62
2023/07/09 08:29:11;;;;;;;4.00;3.42;;;;;;;31.39;48.11;98916.16;4071011;29;20215;-62
2023/07/09 08:31:12;;;;;;;4.25;3.40;;;;;;;31.67;48.36;98911.81;4071861;29;20230;-61
2023/07/09 08:33:14;;;;;;;8.93;3.38;;;;;;;31.96;46.80;98902.59;4071093;29;20266;-62
2023/07/09 08:35:16;;;;;;;3.38;3.08;;;;;;;31.91;46.51;98908.59;4071016;29;20294;-62
2023/07/09 08:37:20;;;;;;;4.68;3.47;;;;;;;31.75;47.08;98894.59;4069855;29;20658;-62
2023/07/09 08:39:22;;;;;;;5.68;3.63;;;;;;;31.92;46.57;98893.22;4069605;29;20693;-61
2023/07/09 08:41:39;;;;;;;4.10;3.67;;;;;;;31.73;46.27;98889.69;4072193;29;20263;-62
2023/07/09 08:43:59;;;;;;;3.58;3.00;;;;;;;31.48;47.17;98892.09;4058333;28;20746;-61
2023/07/09 08:46:06;;;;;;;5.85;3.72;;;;;;;31.80;46.83;98890.63;4069145;29;20215;-61
2023/07/09 08:48:14;;;;;;;4.60;2.88;;;;;;;32.21;48.04;98881.94;4082967;28;20231;-61
2023/07/09 08:50:19;;;;;;;7.38;3.47;;;;;;;32.61;46.63;98884.13;4071842;29;20238;-62
2023/07/09 08:52:30;;;;;;;3.88;3.03;;;;;;;32.59;46.36;98878.00;4053939;29;20264;-62
2023/07/09 08:54:34;;;;;;;6.07;3.70;;;;;;;32.01;44.85;98879.63;4069055;29;20208;-62
2023/07/09 08:56:36;;;;;;;4.78;2.40;;;;;;;32.24;44.80;98880.38;4066249;29;20222;-61
2023/07/09 08:58:38;;;;;;;4.47;3.80;;;;;;;32.28;44.03;98878.44;4069970;29;20263;-61
2023/07/09 09:00:51;;;;;;;3.28;2.58;;;;;;;32.28;43.80;98875.59;4066184;29;20619;-60
2023/07/09 09:03:05;;;;;;;3.35;2.80;;;;;;;32.10;44.84;98877.31;4069721;29;20295;-61
2023/07/09 09:05:17;;;;;;;3.70;3.15;;;;;;;32.79;45.52;98873.88;4070220;29;20270;-61
2023/07/09 09:07:45;;;;;;;5.07;3.30;;;;;;;33.08;43.63;98878.63;4069467;29;20656;-61
2023/07/09 09:09:54;;;;;;;3.10;2.53;;;;;;;33.55;43.24;98875.88;4072124;29;20339;-62
2023/07/09 09:12:17;;;;;;;4.65;3.17;;;;;;;32.69;43.21;98863.16;4083109;28;20223;-62
2023/07/09 09:14:27;;;;;;;3.42;3.13;;;;;;;33.24;43.97;98868.66;4069281;29;20231;-61
2023/07/09 09:16:31;;;;;;;4.95;3.15;;;;;;;33.35;43.00;98865.97;4070611;29;20675;-61
2023/07/09 09:18:43;;;;;;;4.43;3.33;;;;;;;33.38;43.53;98873.69;4074875;29;20211;-61
2023/07/09 09:21:04;;;;;;;4.20;3.03;;;;;;;33.11;42.91;98864.47;4070568;29;20211;-62
2023/07/09 09:23:06;;;;;;;5.20;2.95;;;;;;;33.11;43.46;98864.47;4070279;29;20204;-62
2023/07/09 09:25:14;;;;;;;4.15;3.75;;;;;;;33.13;43.54;98861.25;4072434;29;20219;-62
2023/07/09 09:27:15;;;;;;;4.40;2.63;;;;;;;33.32;43.51;98866.72;4071366;29;20208;-63
2023/07/09 09:29:17;;;;;;;4.22;3.88;;;;;;;33.07;42.94;98859.97;4068319;29;20786;-63
2023/07/09 09:31:19;;;;;;;6.47;2.55;;;;;;;33.14;43.86;98858.00;4069148;29;20310;-63
2023/07/09 09:33:21;;;;;;;4.22;2.95;;;;;;;33.65;43.08;98860.94;4071634;29;20200;-63
2023/07/09 09:35:28;;;;;;;4.97;3.53;;;;;;;33.59;42.33;98856.84;4069987;29;20211;-63
2023/07/09 09:37:31;;;;;;;4.07;3.33;;;;;;;34.07;41.84;98844.22;4074830;29;20267;-63
2023/07/09 09:39:38;;;;;;;3.70;2.85;;;;;;;34.11;41.25;98839.38;4072748;29;20286;-63
2023/07/09 09:41:42;;;;;;;5.53;2.80;;;;;;;34.08;41.46;98840.19;4074663;29;20278;-63